sensor_id;sensor_type;location;lat;lon;timestamp;P1;durP1;ratioP1;P2;durP2;ratioP2
20294;SDS011;10306;52.128;5.208;2022-12-29T00:00:09;2.20;;;2.10;;
20294;SDS011;10306;52.128;5.208;2022-12-29T00:02:35;1.97;;;1.87;;
20294;SDS011;10306;52.128;5.208;2022-12-29T00:05:01;1.97;;;1.90;;
20294;SDS011;10306;52.128;5.208;2022-12-29T00:07:27;2.20;;;2.00;;
20294;SDS011;10306;52.128;5.208;2022-12-29T00:09:53;1.83;;;1.73;;
20294;SDS011;10306;52.128;5.208;2022-12-29T00:12:19;1.90;;;1.80;;
20294;SDS011;10306;52.128;5.208;2022-12-29T00:14:45;2.00;;;1.90;;
20294;SDS011;10306;52.128;5.208;2022-12-29T00:17:30;2.00;;;1.90;;
20294;SDS011;10306;52.128;5.208;2022-12-29T00:19:56;1.70;;;1.70;;
20294;SDS011;10306;52.128;5.208;2022-12-29T00:22:40;1.80;;;1.70;;
20294;SDS011;10306;52.128;5.208;2022-12-29T00:25:25;1.80;;;1.70;;
20294;SDS011;10306;52.128;5.208;2022-12-29T00:28:09;1.80;;;1.80;;
20294;SDS011;10306;52.128;5.208;2022-12-29T00:30:58;1.80;;;1.70;;
20294;SDS011;10306;52.128;5.208;2022-12-29T00:33:42;2.00;;;1.90;;
20294;SDS011;10306;52.128;5.208;2022-12-29T00:36:39;1.90;;;1.80;;
20294;SDS011;10306;52.128;5.208;2022-12-29T00:39:07;1.40;;;1.40;;
20294;SDS011;10306;52.128;5.208;2022-12-29T00:41:53;1.70;;;1.70;;
20294;SDS011;10306;52.128;5.208;2022-12-29T00:44:37;1.87;;;1.77;;
20294;SDS011;10306;52.128;5.208;2022-12-29T00:47:03;1.63;;;1.57;;
20294;SDS011;10306;52.128;5.208;2022-12-29T00:49:29;1.87;;;1.77;;
20294;SDS011;10306;52.128;5.208;2022-12-29T00:51:57;1.70;;;1.70;;
20294;SDS011;10306;52.128;5.208;2022-12-29T00:54:23;2.10;;;2.00;;
20294;SDS011;10306;52.128;5.208;2022-12-29T00:56:50;1.60;;;1.60;;
20294;SDS011;10306;52.128;5.208;2022-12-29T00:59:16;1.60;;;1.47;;
20294;SDS011;10306;52.128;5.208;2022-12-29T01:01:42;1.70;;;1.70;;
20294;SDS011;10306;52.128;5.208;2022-12-29T01:04:08;1.47;;;1.40;;
20294;SDS011;10306;52.128;5.208;2022-12-29T01:06:35;1.23;;;1.23;;
20294;SDS011;10306;52.128;5.208;2022-12-29T01:09:01;1.50;;;1.20;;
20294;SDS011;10306;52.128;5.208;2022-12-29T01:11:46;1.90;;;1.30;;
20294;SDS011;10306;52.128;5.208;2022-12-29T01:14:12;1.37;;;1.20;;
20294;SDS011;10306;52.128;5.208;2022-12-29T01:16:39;1.20;;;1.10;;
20294;SDS011;10306;52.128;5.208;2022-12-29T01:19:04;1.73;;;1.10;;
20294;SDS011;10306;52.128;5.208;2022-12-29T01:21:31;1.30;;;1.30;;
20294;SDS011;10306;52.128;5.208;2022-12-29T01:23:57;1.40;;;1.30;;
20294;SDS011;10306;52.128;5.208;2022-12-29T01:26:23;1.43;;;1.33;;
20294;SDS011;10306;52.128;5.208;2022-12-29T01:28:49;1.30;;;1.30;;
20294;SDS011;10306;52.128;5.208;2022-12-29T01:31:15;1.73;;;1.70;;
20294;SDS011;10306;52.128;5.208;2022-12-29T01:33:42;4.30;;;1.63;;
20294;SDS011;10306;52.128;5.208;2022-12-29T01:36:09;2.20;;;1.60;;
20294;SDS011;10306;52.128;5.208;2022-12-29T01:38:36;2.07;;;1.97;;
20294;SDS011;10306;52.128;5.208;2022-12-29T01:41:02;2.07;;;1.97;;
20294;SDS011;10306;52.128;5.208;2022-12-29T01:43:47;2.10;;;2.00;;
20294;SDS011;10306;52.128;5.208;2022-12-29T01:48:46;1.97;;;1.87;;
20294;SDS011;10306;52.128;5.208;2022-12-29T01:51:14;2.23;;;2.00;;
20294;SDS011;10306;52.128;5.208;2022-12-29T01:53:40;2.50;;;2.10;;
20294;SDS011;10306;52.128;5.208;2022-12-29T01:56:07;2.27;;;2.17;;
20294;SDS011;10306;52.128;5.208;2022-12-29T01:58:36;2.37;;;2.17;;
20294;SDS011;10306;52.128;5.208;2022-12-29T02:01:03;2.43;;;2.33;;
20294;SDS011;10306;52.128;5.208;2022-12-29T02:03:29;2.47;;;2.27;;
20294;SDS011;10306;52.128;5.208;2022-12-29T02:08:42;1.73;;;1.60;;
20294;SDS011;10306;52.128;5.208;2022-12-29T02:11:08;2.47;;;2.27;;
20294;SDS011;10306;52.128;5.208;2022-12-29T02:13:35;2.57;;;2.37;;
20294;SDS011;10306;52.128;5.208;2022-12-29T02:24:36;2.00;;;1.90;;
20294;SDS011;10306;52.128;5.208;2022-12-29T02:30:03;1.50;;;1.50;;
20294;SDS011;10306;52.128;5.208;2022-12-29T02:32:32;2.27;;;1.50;;
20294;SDS011;10306;52.128;5.208;2022-12-29T02:35:05;1.97;;;1.60;;
20294;SDS011;10306;52.128;5.208;2022-12-29T02:40:17;1.47;;;1.10;;
20294;SDS011;10306;52.128;5.208;2022-12-29T02:42:58;1.97;;;1.17;;
20294;SDS011;10306;52.128;5.208;2022-12-29T02:45:36;1.07;;;0.80;;
20294;SDS011;10306;52.128;5.208;2022-12-29T02:48:09;0.70;;;0.70;;
20294;SDS011;10306;52.128;5.208;2022-12-29T02:50:39;1.47;;;1.03;;
20294;SDS011;10306;52.128;5.208;2022-12-29T02:53:09;2.63;;;0.80;;
20294;SDS011;10306;52.128;5.208;2022-12-29T02:55:36;0.50;;;0.50;;
20294;SDS011;10306;52.128;5.208;2022-12-29T03:00:35;2.00;;;0.70;;
20294;SDS011;10306;52.128;5.208;2022-12-29T03:05:40;0.77;;;0.77;;
20294;SDS011;10306;52.128;5.208;2022-12-29T03:11:05;1.20;;;0.80;;
20294;SDS011;10306;52.128;5.208;2022-12-29T03:13:52;0.63;;;0.60;;
20294;SDS011;10306;52.128;5.208;2022-12-29T03:19:11;1.60;;;0.70;;
20294;SDS011;10306;52.128;5.208;2022-12-29T03:21:56;2.33;;;0.60;;
20294;SDS011;10306;52.128;5.208;2022-12-29T03:24:43;0.70;;;0.70;;
20294;SDS011;10306;52.128;5.208;2022-12-29T03:27:12;2.37;;;0.70;;
20294;SDS011;10306;52.128;5.208;2022-12-29T03:29:41;2.50;;;0.60;;
20294;SDS011;10306;52.128;5.208;2022-12-29T03:32:08;0.60;;;0.60;;
20294;SDS011;10306;52.128;5.208;2022-12-29T03:34:37;3.23;;;1.20;;
20294;SDS011;10306;52.128;5.208;2022-12-29T03:37:10;1.80;;;0.70;;
20294;SDS011;10306;52.128;5.208;2022-12-29T03:39:37;0.77;;;0.60;;
20294;SDS011;10306;52.128;5.208;2022-12-29T03:42:05;1.10;;;0.70;;
20294;SDS011;10306;52.128;5.208;2022-12-29T03:44:32;1.10;;;0.67;;
20294;SDS011;10306;52.128;5.208;2022-12-29T03:46:59;4.47;;;0.80;;
20294;SDS011;10306;52.128;5.208;2022-12-29T03:49:25;0.80;;;0.70;;
20294;SDS011;10306;52.128;5.208;2022-12-29T03:51:50;1.17;;;0.53;;
20294;SDS011;10306;52.128;5.208;2022-12-29T03:54:16;0.87;;;0.67;;
20294;SDS011;10306;52.128;5.208;2022-12-29T03:56:42;0.77;;;0.63;;
20294;SDS011;10306;52.128;5.208;2022-12-29T03:59:08;1.00;;;0.67;;
20294;SDS011;10306;52.128;5.208;2022-12-29T04:01:34;1.13;;;0.50;;
20294;SDS011;10306;52.128;5.208;2022-12-29T04:04:00;2.13;;;0.90;;
20294;SDS011;10306;52.128;5.208;2022-12-29T04:06:26;1.57;;;0.80;;
20294;SDS011;10306;52.128;5.208;2022-12-29T04:08:52;1.70;;;0.87;;
20294;SDS011;10306;52.128;5.208;2022-12-29T04:11:18;1.87;;;0.93;;
20294;SDS011;10306;52.128;5.208;2022-12-29T04:13:44;1.10;;;0.87;;
20294;SDS011;10306;52.128;5.208;2022-12-29T04:16:10;1.97;;;1.07;;
20294;SDS011;10306;52.128;5.208;2022-12-29T04:18:36;1.60;;;1.00;;
20294;SDS011;10306;52.128;5.208;2022-12-29T04:21:02;1.27;;;1.10;;
20294;SDS011;10306;52.128;5.208;2022-12-29T04:23:29;1.60;;;0.90;;
20294;SDS011;10306;52.128;5.208;2022-12-29T04:25:56;3.87;;;1.10;;
20294;SDS011;10306;52.128;5.208;2022-12-29T04:28:22;2.70;;;0.80;;
20294;SDS011;10306;52.128;5.208;2022-12-29T04:30:48;3.13;;;1.10;;
20294;SDS011;10306;52.128;5.208;2022-12-29T04:33:14;1.13;;;0.87;;
20294;SDS011;10306;52.128;5.208;2022-12-29T04:35:41;3.30;;;1.10;;
20294;SDS011;10306;52.128;5.208;2022-12-29T04:38:07;2.67;;;1.43;;
20294;SDS011;10306;52.128;5.208;2022-12-29T04:40:33;1.77;;;0.87;;
20294;SDS011;10306;52.128;5.208;2022-12-29T04:42:59;1.70;;;0.90;;
20294;SDS011;10306;52.128;5.208;2022-12-29T04:45:24;2.17;;;0.83;;
20294;SDS011;10306;52.128;5.208;2022-12-29T04:47:50;2.67;;;0.90;;
20294;SDS011;10306;52.128;5.208;2022-12-29T04:50:16;1.10;;;0.60;;
20294;SDS011;10306;52.128;5.208;2022-12-29T04:52:42;2.43;;;1.10;;
20294;SDS011;10306;52.128;5.208;2022-12-29T04:55:08;1.23;;;0.80;;
20294;SDS011;10306;52.128;5.208;2022-12-29T04:57:35;0.80;;;0.57;;
20294;SDS011;10306;52.128;5.208;2022-12-29T05:00:01;3.17;;;0.80;;
20294;SDS011;10306;52.128;5.208;2022-12-29T05:02:27;1.47;;;1.00;;
20294;SDS011;10306;52.128;5.208;2022-12-29T05:04:53;1.30;;;0.77;;
20294;SDS011;10306;52.128;5.208;2022-12-29T05:07:19;6.57;;;1.07;;
20294;SDS011;10306;52.128;5.208;2022-12-29T05:09:45;7.40;;;1.70;;
20294;SDS011;10306;52.128;5.208;2022-12-29T05:12:11;4.13;;;1.37;;
20294;SDS011;10306;52.128;5.208;2022-12-29T05:14:37;4.30;;;1.20;;
20294;SDS011;10306;52.128;5.208;2022-12-29T05:17:03;3.60;;;1.10;;
20294;SDS011;10306;52.128;5.208;2022-12-29T05:19:29;8.90;;;1.47;;
20294;SDS011;10306;52.128;5.208;2022-12-29T05:21:55;4.50;;;1.20;;
20294;SDS011;10306;52.128;5.208;2022-12-29T05:24:21;4.07;;;1.40;;
20294;SDS011;10306;52.128;5.208;2022-12-29T05:26:47;4.43;;;1.10;;
20294;SDS011;10306;52.128;5.208;2022-12-29T05:29:13;7.10;;;1.13;;
20294;SDS011;10306;52.128;5.208;2022-12-29T05:31:39;2.07;;;1.13;;
20294;SDS011;10306;52.128;5.208;2022-12-29T05:34:05;3.43;;;1.23;;
20294;SDS011;10306;52.128;5.208;2022-12-29T05:36:31;2.77;;;1.10;;
20294;SDS011;10306;52.128;5.208;2022-12-29T05:38:57;8.67;;;1.43;;
20294;SDS011;10306;52.128;5.208;2022-12-29T05:41:23;6.80;;;1.60;;
20294;SDS011;10306;52.128;5.208;2022-12-29T05:43:49;6.00;;;1.30;;
20294;SDS011;10306;52.128;5.208;2022-12-29T05:46:15;6.27;;;1.30;;
20294;SDS011;10306;52.128;5.208;2022-12-29T05:48:41;8.50;;;1.53;;
20294;SDS011;10306;52.128;5.208;2022-12-29T05:51:07;6.30;;;1.60;;
20294;SDS011;10306;52.128;5.208;2022-12-29T05:53:33;6.13;;;1.47;;
20294;SDS011;10306;52.128;5.208;2022-12-29T05:55:59;6.07;;;1.40;;
20294;SDS011;10306;52.128;5.208;2022-12-29T05:58:25;8.43;;;1.00;;
20294;SDS011;10306;52.128;5.208;2022-12-29T06:00:51;5.00;;;1.20;;
20294;SDS011;10306;52.128;5.208;2022-12-29T06:03:17;1.30;;;1.03;;
20294;SDS011;10306;52.128;5.208;2022-12-29T06:05:44;4.10;;;1.60;;
20294;SDS011;10306;52.128;5.208;2022-12-29T06:08:10;4.00;;;1.30;;
20294;SDS011;10306;52.128;5.208;2022-12-29T06:10:36;5.33;;;1.37;;
20294;SDS011;10306;52.128;5.208;2022-12-29T06:13:02;7.00;;;1.53;;
20294;SDS011;10306;52.128;5.208;2022-12-29T06:15:30;2.20;;;1.20;;
20294;SDS011;10306;52.128;5.208;2022-12-29T06:17:56;3.43;;;1.10;;
20294;SDS011;10306;52.128;5.208;2022-12-29T06:20:22;4.50;;;1.20;;
20294;SDS011;10306;52.128;5.208;2022-12-29T06:22:48;7.93;;;1.37;;
20294;SDS011;10306;52.128;5.208;2022-12-29T06:25:14;4.10;;;1.67;;
20294;SDS011;10306;52.128;5.208;2022-12-29T06:27:40;5.17;;;1.33;;
20294;SDS011;10306;52.128;5.208;2022-12-29T06:30:06;4.87;;;1.60;;
20294;SDS011;10306;52.128;5.208;2022-12-29T06:32:33;9.17;;;1.57;;
20294;SDS011;10306;52.128;5.208;2022-12-29T06:34:59;7.47;;;1.40;;
20294;SDS011;10306;52.128;5.208;2022-12-29T06:37:26;10.63;;;1.60;;
20294;SDS011;10306;52.128;5.208;2022-12-29T06:39:52;6.23;;;1.50;;
20294;SDS011;10306;52.128;5.208;2022-12-29T06:42:18;4.87;;;1.33;;
20294;SDS011;10306;52.128;5.208;2022-12-29T06:44:44;8.63;;;1.50;;
20294;SDS011;10306;52.128;5.208;2022-12-29T06:47:10;5.60;;;1.10;;
20294;SDS011;10306;52.128;5.208;2022-12-29T06:49:36;7.40;;;1.67;;
20294;SDS011;10306;52.128;5.208;2022-12-29T06:52:02;8.40;;;1.40;;
20294;SDS011;10306;52.128;5.208;2022-12-29T06:54:29;4.80;;;1.23;;
20294;SDS011;10306;52.128;5.208;2022-12-29T06:56:55;5.73;;;1.40;;
20294;SDS011;10306;52.128;5.208;2022-12-29T06:59:21;5.77;;;1.57;;
20294;SDS011;10306;52.128;5.208;2022-12-29T07:01:47;6.87;;;1.43;;
20294;SDS011;10306;52.128;5.208;2022-12-29T07:04:14;6.60;;;1.50;;
20294;SDS011;10306;52.128;5.208;2022-12-29T07:06:40;5.60;;;1.30;;
20294;SDS011;10306;52.128;5.208;2022-12-29T07:09:06;7.33;;;1.23;;
20294;SDS011;10306;52.128;5.208;2022-12-29T07:11:32;6.47;;;1.47;;
20294;SDS011;10306;52.128;5.208;2022-12-29T07:13:58;3.37;;;1.87;;
20294;SDS011;10306;52.128;5.208;2022-12-29T07:16:24;3.57;;;0.97;;
20294;SDS011;10306;52.128;5.208;2022-12-29T07:18:50;0.83;;;0.83;;
20294;SDS011;10306;52.128;5.208;2022-12-29T07:21:16;3.40;;;0.97;;
20294;SDS011;10306;52.128;5.208;2022-12-29T07:23:42;8.20;;;0.90;;
20294;SDS011;10306;52.128;5.208;2022-12-29T07:26:09;2.00;;;0.87;;
20294;SDS011;10306;52.128;5.208;2022-12-29T07:28:36;2.73;;;1.00;;
20294;SDS011;10306;52.128;5.208;2022-12-29T07:31:06;2.53;;;0.90;;
20294;SDS011;10306;52.128;5.208;2022-12-29T07:33:35;5.40;;;1.07;;
20294;SDS011;10306;52.128;5.208;2022-12-29T07:36:01;3.50;;;1.10;;
20294;SDS011;10306;52.128;5.208;2022-12-29T07:38:27;2.00;;;1.33;;
20294;SDS011;10306;52.128;5.208;2022-12-29T07:40:56;4.13;;;1.20;;
20294;SDS011;10306;52.128;5.208;2022-12-29T07:43:22;4.27;;;1.20;;
20294;SDS011;10306;52.128;5.208;2022-12-29T07:45:47;3.87;;;1.00;;
20294;SDS011;10306;52.128;5.208;2022-12-29T07:48:13;3.53;;;1.50;;
20294;SDS011;10306;52.128;5.208;2022-12-29T07:50:39;8.43;;;1.53;;
20294;SDS011;10306;52.128;5.208;2022-12-29T07:53:05;5.27;;;1.63;;
20294;SDS011;10306;52.128;5.208;2022-12-29T07:55:31;6.27;;;1.10;;
20294;SDS011;10306;52.128;5.208;2022-12-29T07:57:57;5.07;;;1.50;;
20294;SDS011;10306;52.128;5.208;2022-12-29T08:00:23;5.27;;;1.53;;
20294;SDS011;10306;52.128;5.208;2022-12-29T08:02:49;4.37;;;1.43;;
20294;SDS011;10306;52.128;5.208;2022-12-29T08:05:15;3.30;;;1.00;;
20294;SDS011;10306;52.128;5.208;2022-12-29T08:07:42;6.97;;;1.90;;
20294;SDS011;10306;52.128;5.208;2022-12-29T08:10:09;4.30;;;1.00;;
20294;SDS011;10306;52.128;5.208;2022-12-29T08:12:35;5.60;;;1.40;;
20294;SDS011;10306;52.128;5.208;2022-12-29T08:15:01;9.83;;;1.37;;
20294;SDS011;10306;52.128;5.208;2022-12-29T08:17:27;2.90;;;1.20;;
20294;SDS011;10306;52.128;5.208;2022-12-29T08:19:53;4.73;;;1.33;;
20294;SDS011;10306;52.128;5.208;2022-12-29T08:22:19;3.17;;;1.13;;
20294;SDS011;10306;52.128;5.208;2022-12-29T08:24:45;7.53;;;1.77;;
20294;SDS011;10306;52.128;5.208;2022-12-29T08:27:11;4.70;;;1.10;;
20294;SDS011;10306;52.128;5.208;2022-12-29T08:29:37;5.13;;;1.20;;
20294;SDS011;10306;52.128;5.208;2022-12-29T08:32:03;8.37;;;1.50;;
20294;SDS011;10306;52.128;5.208;2022-12-29T08:34:30;3.37;;;1.63;;
20294;SDS011;10306;52.128;5.208;2022-12-29T08:36:56;3.07;;;1.43;;
20294;SDS011;10306;52.128;5.208;2022-12-29T08:39:22;8.83;;;2.13;;
20294;SDS011;10306;52.128;5.208;2022-12-29T08:41:48;3.53;;;1.17;;
20294;SDS011;10306;52.128;5.208;2022-12-29T08:44:14;4.13;;;1.57;;
20294;SDS011;10306;52.128;5.208;2022-12-29T08:46:40;3.10;;;1.10;;
20294;SDS011;10306;52.128;5.208;2022-12-29T08:49:06;3.77;;;1.60;;
20294;SDS011;10306;52.128;5.208;2022-12-29T08:51:32;5.20;;;1.60;;
20294;SDS011;10306;52.128;5.208;2022-12-29T08:53:58;9.60;;;1.40;;
20294;SDS011;10306;52.128;5.208;2022-12-29T08:56:25;5.17;;;1.50;;
20294;SDS011;10306;52.128;5.208;2022-12-29T08:58:51;6.77;;;1.30;;
20294;SDS011;10306;52.128;5.208;2022-12-29T09:01:18;4.10;;;1.33;;
20294;SDS011;10306;52.128;5.208;2022-12-29T09:03:44;6.10;;;1.30;;
20294;SDS011;10306;52.128;5.208;2022-12-29T09:06:10;5.20;;;1.90;;
20294;SDS011;10306;52.128;5.208;2022-12-29T09:08:36;2.70;;;1.40;;
20294;SDS011;10306;52.128;5.208;2022-12-29T09:11:09;5.43;;;1.10;;
20294;SDS011;10306;52.128;5.208;2022-12-29T09:13:35;6.17;;;1.93;;
20294;SDS011;10306;52.128;5.208;2022-12-29T09:16:01;9.83;;;1.53;;
20294;SDS011;10306;52.128;5.208;2022-12-29T09:18:27;6.03;;;1.30;;
20294;SDS011;10306;52.128;5.208;2022-12-29T09:20:57;5.13;;;1.40;;
20294;SDS011;10306;52.128;5.208;2022-12-29T09:23:23;3.33;;;1.30;;
20294;SDS011;10306;52.128;5.208;2022-12-29T09:25:49;3.60;;;1.17;;
20294;SDS011;10306;52.128;5.208;2022-12-29T09:28:15;6.70;;;1.83;;
20294;SDS011;10306;52.128;5.208;2022-12-29T09:30:41;3.10;;;1.30;;
20294;SDS011;10306;52.128;5.208;2022-12-29T09:33:07;5.00;;;1.60;;
20294;SDS011;10306;52.128;5.208;2022-12-29T09:35:33;17.73;;;4.80;;
20294;SDS011;10306;52.128;5.208;2022-12-29T09:37:59;2.57;;;1.67;;
20294;SDS011;10306;52.128;5.208;2022-12-29T09:40:26;3.37;;;1.20;;
20294;SDS011;10306;52.128;5.208;2022-12-29T09:45:32;6.23;;;1.23;;
20294;SDS011;10306;52.128;5.208;2022-12-29T09:48:02;2.43;;;1.20;;
20294;SDS011;10306;52.128;5.208;2022-12-29T09:50:30;9.17;;;1.37;;
20294;SDS011;10306;52.128;5.208;2022-12-29T09:53:03;3.83;;;1.30;;
20294;SDS011;10306;52.128;5.208;2022-12-29T09:55:34;8.10;;;1.70;;
20294;SDS011;10306;52.128;5.208;2022-12-29T09:58:06;4.93;;;1.20;;
20294;SDS011;10306;52.128;5.208;2022-12-29T10:03:16;3.13;;;1.53;;
20294;SDS011;10306;52.128;5.208;2022-12-29T10:10:57;5.43;;;1.40;;
20294;SDS011;10306;52.128;5.208;2022-12-29T10:16:13;1.93;;;0.93;;
20294;SDS011;10306;52.128;5.208;2022-12-29T10:19:00;1.77;;;1.30;;
20294;SDS011;10306;52.128;5.208;2022-12-29T10:23:55;3.13;;;1.60;;
20294;SDS011;10306;52.128;5.208;2022-12-29T10:26:28;1.30;;;1.03;;
20294;SDS011;10306;52.128;5.208;2022-12-29T10:29:05;5.07;;;1.20;;
20294;SDS011;10306;52.128;5.208;2022-12-29T10:31:33;7.80;;;1.40;;
20294;SDS011;10306;52.128;5.208;2022-12-29T10:34:02;2.50;;;1.03;;
20294;SDS011;10306;52.128;5.208;2022-12-29T10:36:38;2.73;;;1.50;;
20294;SDS011;10306;52.128;5.208;2022-12-29T10:39:07;1.63;;;1.53;;
20294;SDS011;10306;52.128;5.208;2022-12-29T10:41:51;2.43;;;1.70;;
20294;SDS011;10306;52.128;5.208;2022-12-29T10:44:18;10.73;;;2.03;;
20294;SDS011;10306;52.128;5.208;2022-12-29T10:46:45;4.37;;;1.70;;
20294;SDS011;10306;52.128;5.208;2022-12-29T10:49:16;2.93;;;1.70;;
20294;SDS011;10306;52.128;5.208;2022-12-29T10:51:44;6.13;;;2.27;;
20294;SDS011;10306;52.128;5.208;2022-12-29T10:54:15;10.83;;;2.47;;
20294;SDS011;10306;52.128;5.208;2022-12-29T10:56:43;3.80;;;1.80;;
20294;SDS011;10306;52.128;5.208;2022-12-29T10:59:16;6.27;;;2.30;;
20294;SDS011;10306;52.128;5.208;2022-12-29T11:01:49;9.67;;;2.67;;
20294;SDS011;10306;52.128;5.208;2022-12-29T11:04:41;11.63;;;2.83;;
20294;SDS011;10306;52.128;5.208;2022-12-29T11:07:09;9.00;;;3.17;;
20294;SDS011;10306;52.128;5.208;2022-12-29T11:09:35;14.07;;;2.80;;
20294;SDS011;10306;52.128;5.208;2022-12-29T11:12:17;9.77;;;2.40;;
20294;SDS011;10306;52.128;5.208;2022-12-29T11:14:44;10.23;;;1.90;;
20294;SDS011;10306;52.128;5.208;2022-12-29T11:17:12;12.53;;;2.63;;
20294;SDS011;10306;52.128;5.208;2022-12-29T11:19:40;6.90;;;2.17;;
20294;SDS011;10306;52.128;5.208;2022-12-29T11:22:14;5.07;;;2.17;;
20294;SDS011;10306;52.128;5.208;2022-12-29T11:24:44;9.97;;;2.93;;
20294;SDS011;10306;52.128;5.208;2022-12-29T11:27:17;10.23;;;2.30;;
20294;SDS011;10306;52.128;5.208;2022-12-29T11:29:45;11.87;;;2.57;;
20294;SDS011;10306;52.128;5.208;2022-12-29T11:34:44;13.10;;;2.97;;
20294;SDS011;10306;52.128;5.208;2022-12-29T11:37:14;10.30;;;3.10;;
20294;SDS011;10306;52.128;5.208;2022-12-29T11:39:47;7.23;;;2.83;;
20294;SDS011;10306;52.128;5.208;2022-12-29T11:42:17;6.60;;;2.80;;
20294;SDS011;10306;52.128;5.208;2022-12-29T11:44:45;9.37;;;2.20;;
20294;SDS011;10306;52.128;5.208;2022-12-29T11:47:13;16.13;;;2.70;;
20294;SDS011;10306;52.128;5.208;2022-12-29T11:49:39;11.97;;;2.97;;
20294;SDS011;10306;52.128;5.208;2022-12-29T11:52:06;10.57;;;2.33;;
20294;SDS011;10306;52.128;5.208;2022-12-29T11:54:33;15.70;;;2.37;;
20294;SDS011;10306;52.128;5.208;2022-12-29T11:57:14;11.57;;;3.13;;
20294;SDS011;10306;52.128;5.208;2022-12-29T11:59:41;13.07;;;2.20;;
20294;SDS011;10306;52.128;5.208;2022-12-29T12:04:42;9.20;;;2.83;;
20294;SDS011;10306;52.128;5.208;2022-12-29T12:09:51;7.43;;;2.57;;
20294;SDS011;10306;52.128;5.208;2022-12-29T12:12:24;10.57;;;2.67;;
20294;SDS011;10306;52.128;5.208;2022-12-29T12:14:58;2.87;;;1.83;;
20294;SDS011;10306;52.128;5.208;2022-12-29T12:17:26;11.90;;;3.00;;
20294;SDS011;10306;52.128;5.208;2022-12-29T12:20:04;7.27;;;2.47;;
20294;SDS011;10306;52.128;5.208;2022-12-29T12:22:39;15.43;;;2.90;;
20294;SDS011;10306;52.128;5.208;2022-12-29T12:25:20;8.50;;;2.60;;
20294;SDS011;10306;52.128;5.208;2022-12-29T12:27:55;5.77;;;2.30;;
20294;SDS011;10306;52.128;5.208;2022-12-29T12:30:23;10.33;;;2.67;;
20294;SDS011;10306;52.128;5.208;2022-12-29T12:33:50;9.57;;;2.43;;
20294;SDS011;10306;52.128;5.208;2022-12-29T12:35:53;14.03;;;2.70;;
20294;SDS011;10306;52.128;5.208;2022-12-29T12:43:43;12.03;;;2.70;;
20294;SDS011;10306;52.128;5.208;2022-12-29T13:04:10;9.10;;;2.10;;
20294;SDS011;10306;52.128;5.208;2022-12-29T13:06:47;8.30;;;2.47;;
20294;SDS011;10306;52.128;5.208;2022-12-29T13:25:01;7.23;;;1.90;;
20294;SDS011;10306;52.128;5.208;2022-12-29T13:27:43;10.33;;;1.90;;
20294;SDS011;10306;52.128;5.208;2022-12-29T13:30:11;4.93;;;1.70;;
20294;SDS011;10306;52.128;5.208;2022-12-29T13:32:57;7.80;;;1.83;;
20294;SDS011;10306;52.128;5.208;2022-12-29T13:37:55;5.53;;;1.90;;
20294;SDS011;10306;52.128;5.208;2022-12-29T13:40:26;5.37;;;1.83;;
20294;SDS011;10306;52.128;5.208;2022-12-29T13:42:54;10.77;;;2.07;;
20294;SDS011;10306;52.128;5.208;2022-12-29T13:45:21;8.53;;;2.10;;
20294;SDS011;10306;52.128;5.208;2022-12-29T13:47:52;7.83;;;3.13;;
20294;SDS011;10306;52.128;5.208;2022-12-29T13:50:21;7.10;;;2.20;;
20294;SDS011;10306;52.128;5.208;2022-12-29T14:06:18;6.83;;;2.07;;
20294;SDS011;10306;52.128;5.208;2022-12-29T14:08:45;4.37;;;1.70;;
20294;SDS011;10306;52.128;5.208;2022-12-29T14:11:12;7.67;;;2.43;;
20294;SDS011;10306;52.128;5.208;2022-12-29T14:13:40;1.90;;;1.63;;
20294;SDS011;10306;52.128;5.208;2022-12-29T14:16:07;4.60;;;2.03;;
20294;SDS011;10306;52.128;5.208;2022-12-29T14:18:41;3.57;;;1.40;;
20294;SDS011;10306;52.128;5.208;2022-12-29T14:21:18;3.27;;;1.17;;
20294;SDS011;10306;52.128;5.208;2022-12-29T14:23:48;2.60;;;1.00;;
20294;SDS011;10306;52.128;5.208;2022-12-29T14:28:41;5.13;;;1.50;;
20294;SDS011;10306;52.128;5.208;2022-12-29T14:33:39;2.47;;;0.97;;
20294;SDS011;10306;52.128;5.208;2022-12-29T14:36:18;2.90;;;1.10;;
20294;SDS011;10306;52.128;5.208;2022-12-29T14:38:45;2.47;;;1.10;;
20294;SDS011;10306;52.128;5.208;2022-12-29T14:41:15;1.27;;;1.07;;
20294;SDS011;10306;52.128;5.208;2022-12-29T14:43:41;7.13;;;1.30;;
20294;SDS011;10306;52.128;5.208;2022-12-29T14:46:16;1.00;;;1.00;;
20294;SDS011;10306;52.128;5.208;2022-12-29T14:48:43;3.33;;;1.00;;
20294;SDS011;10306;52.128;5.208;2022-12-29T14:51:20;2.57;;;1.00;;
20294;SDS011;10306;52.128;5.208;2022-12-29T14:53:50;2.23;;;1.20;;
20294;SDS011;10306;52.128;5.208;2022-12-29T14:56:17;1.50;;;1.10;;
20294;SDS011;10306;52.128;5.208;2022-12-29T14:58:55;2.80;;;1.30;;
20294;SDS011;10306;52.128;5.208;2022-12-29T15:01:24;5.20;;;1.60;;
20294;SDS011;10306;52.128;5.208;2022-12-29T15:03:51;6.83;;;1.57;;
20294;SDS011;10306;52.128;5.208;2022-12-29T15:06:18;5.17;;;1.70;;
20294;SDS011;10306;52.128;5.208;2022-12-29T15:11:24;2.77;;;1.57;;
20294;SDS011;10306;52.128;5.208;2022-12-29T15:13:50;5.93;;;2.30;;
20294;SDS011;10306;52.128;5.208;2022-12-29T15:18:48;6.17;;;2.00;;
20294;SDS011;10306;52.128;5.208;2022-12-29T15:21:14;8.87;;;2.00;;
20294;SDS011;10306;52.128;5.208;2022-12-29T15:23:42;4.50;;;1.63;;
20294;SDS011;10306;52.128;5.208;2022-12-29T15:26:08;4.33;;;1.53;;
20294;SDS011;10306;52.128;5.208;2022-12-29T15:28:44;4.03;;;1.90;;
20294;SDS011;10306;52.128;5.208;2022-12-29T15:31:23;7.57;;;1.97;;
20294;SDS011;10306;52.128;5.208;2022-12-29T15:33:51;6.27;;;2.10;;
20294;SDS011;10306;52.128;5.208;2022-12-29T15:36:19;8.20;;;2.20;;
20294;SDS011;10306;52.128;5.208;2022-12-29T15:38:45;4.37;;;2.07;;
20294;SDS011;10306;52.128;5.208;2022-12-29T15:41:17;2.47;;;1.63;;
20294;SDS011;10306;52.128;5.208;2022-12-29T15:43:59;4.90;;;1.50;;
20294;SDS011;10306;52.128;5.208;2022-12-29T15:46:32;5.00;;;2.50;;
20294;SDS011;10306;52.128;5.208;2022-12-29T15:48:58;7.53;;;2.57;;
20294;SDS011;10306;52.128;5.208;2022-12-29T15:51:27;5.17;;;1.97;;
20294;SDS011;10306;52.128;5.208;2022-12-29T15:53:54;6.53;;;1.77;;
20294;SDS011;10306;52.128;5.208;2022-12-29T15:56:20;9.57;;;2.13;;
20294;SDS011;10306;52.128;5.208;2022-12-29T15:58:50;4.03;;;1.50;;
20294;SDS011;10306;52.128;5.208;2022-12-29T16:01:23;6.07;;;2.03;;
20294;SDS011;10306;52.128;5.208;2022-12-29T16:03:50;7.13;;;1.70;;
20294;SDS011;10306;52.128;5.208;2022-12-29T16:08:58;8.00;;;1.70;;
20294;SDS011;10306;52.128;5.208;2022-12-29T16:13:50;4.37;;;1.77;;
20294;SDS011;10306;52.128;5.208;2022-12-29T16:16:22;4.07;;;1.70;;
20294;SDS011;10306;52.128;5.208;2022-12-29T16:18:49;3.70;;;1.77;;
20294;SDS011;10306;52.128;5.208;2022-12-29T16:21:18;2.43;;;1.60;;
20294;SDS011;10306;52.128;5.208;2022-12-29T16:23:46;2.20;;;1.53;;
20294;SDS011;10306;52.128;5.208;2022-12-29T16:26:15;6.40;;;1.80;;
20294;SDS011;10306;52.128;5.208;2022-12-29T16:28:42;4.50;;;1.40;;
20294;SDS011;10306;52.128;5.208;2022-12-29T16:33:46;7.90;;;1.37;;
20294;SDS011;10306;52.128;5.208;2022-12-29T16:38:50;6.10;;;1.87;;
20294;SDS011;10306;52.128;5.208;2022-12-29T16:41:29;3.03;;;1.53;;
20294;SDS011;10306;52.128;5.208;2022-12-29T16:49:23;1.80;;;1.50;;
20294;SDS011;10306;52.128;5.208;2022-12-29T16:51:50;2.07;;;1.23;;
20294;SDS011;10306;52.128;5.208;2022-12-29T16:54:20;4.63;;;2.13;;
20294;SDS011;10306;52.128;5.208;2022-12-29T16:56:47;6.83;;;1.80;;
20294;SDS011;10306;52.128;5.208;2022-12-29T17:01:42;4.03;;;1.63;;
20294;SDS011;10306;52.128;5.208;2022-12-29T17:04:09;9.03;;;1.93;;
20294;SDS011;10306;52.128;5.208;2022-12-29T17:06:35;3.83;;;1.30;;
20294;SDS011;10306;52.128;5.208;2022-12-29T17:09:02;3.60;;;1.33;;
20294;SDS011;10306;52.128;5.208;2022-12-29T17:11:30;6.17;;;1.60;;